sensor_id;sensor_type;location;lat;lon;timestamp;P1;durP1;ratioP1;P2;durP2;ratioP2
13897;SDS011;7019;50.766;4.474;2023-08-08T00:02:07;3.97;;;2.13;;
13897;SDS011;7019;50.766;4.474;2023-08-08T00:04:35;12.30;;;2.73;;
13897;SDS011;7019;50.766;4.474;2023-08-08T00:07:02;4.47;;;2.23;;
13897;SDS011;7019;50.766;4.474;2023-08-08T00:09:29;4.27;;;2.50;;
13897;SDS011;7019;50.766;4.474;2023-08-08T00:11:57;6.77;;;2.43;;
13897;SDS011;7019;50.766;4.474;2023-08-08T00:14:24;6.30;;;2.50;;
13897;SDS011;7019;50.766;4.474;2023-08-08T00:16:51;6.40;;;2.63;;
13897;SDS011;7019;50.766;4.474;2023-08-08T00:19:18;4.50;;;2.30;;
13897;SDS011;7019;50.766;4.474;2023-08-08T00:21:45;6.03;;;2.60;;
13897;SDS011;7019;50.766;4.474;2023-08-08T00:24:12;7.33;;;2.77;;
13897;SDS011;7019;50.766;4.474;2023-08-08T00:26:40;8.03;;;3.10;;
13897;SDS011;7019;50.766;4.474;2023-08-08T00:29:08;3.73;;;2.40;;
13897;SDS011;7019;50.766;4.474;2023-08-08T00:31:35;5.87;;;3.00;;
13897;SDS011;7019;50.766;4.474;2023-08-08T00:34:02;4.53;;;2.47;;
13897;SDS011;7019;50.766;4.474;2023-08-08T00:36:29;7.87;;;3.47;;
13897;SDS011;7019;50.766;4.474;2023-08-08T00:38:56;5.57;;;3.13;;
13897;SDS011;7019;50.766;4.474;2023-08-08T00:41:23;7.70;;;2.63;;
13897;SDS011;7019;50.766;4.474;2023-08-08T00:43:50;7.30;;;3.10;;
13897;SDS011;7019;50.766;4.474;2023-08-08T00:46:18;8.20;;;3.43;;
13897;SDS011;7019;50.766;4.474;2023-08-08T00:48:49;6.03;;;3.10;;
13897;SDS011;7019;50.766;4.474;2023-08-08T00:51:17;6.17;;;3.27;;
13897;SDS011;7019;50.766;4.474;2023-08-08T00:53:45;7.87;;;3.37;;
13897;SDS011;7019;50.766;4.474;2023-08-08T00:56:13;8.33;;;2.97;;
13897;SDS011;7019;50.766;4.474;2023-08-08T00:58:42;7.83;;;2.63;;
13897;SDS011;7019;50.766;4.474;2023-08-08T01:01:10;5.00;;;3.23;;
13897;SDS011;7019;50.766;4.474;2023-08-08T01:03:39;8.80;;;3.40;;
13897;SDS011;7019;50.766;4.474;2023-08-08T01:06:08;7.53;;;3.43;;
13897;SDS011;7019;50.766;4.474;2023-08-08T01:08:43;14.13;;;3.30;;
13897;SDS011;7019;50.766;4.474;2023-08-08T01:11:14;11.27;;;3.70;;
13897;SDS011;7019;50.766;4.474;2023-08-08T01:13:43;4.53;;;3.03;;
13897;SDS011;7019;50.766;4.474;2023-08-08T01:16:11;4.77;;;2.70;;
13897;SDS011;7019;50.766;4.474;2023-08-08T01:18:41;9.73;;;3.20;;
13897;SDS011;7019;50.766;4.474;2023-08-08T01:21:09;8.53;;;3.83;;
13897;SDS011;7019;50.766;4.474;2023-08-08T01:23:41;6.90;;;3.63;;
13897;SDS011;7019;50.766;4.474;2023-08-08T01:26:11;6.57;;;3.07;;
13897;SDS011;7019;50.766;4.474;2023-08-08T01:28:39;8.00;;;3.27;;
13897;SDS011;7019;50.766;4.474;2023-08-08T01:31:06;8.10;;;3.67;;
13897;SDS011;7019;50.766;4.474;2023-08-08T01:33:33;10.00;;;3.67;;
13897;SDS011;7019;50.766;4.474;2023-08-08T01:36:01;10.27;;;3.47;;
13897;SDS011;7019;50.766;4.474;2023-08-08T01:38:34;12.83;;;3.70;;
13897;SDS011;7019;50.766;4.474;2023-08-08T01:41:03;5.47;;;3.23;;
13897;SDS011;7019;50.766;4.474;2023-08-08T01:43:33;4.43;;;3.00;;
13897;SDS011;7019;50.766;4.474;2023-08-08T01:46:01;8.17;;;3.40;;
13897;SDS011;7019;50.766;4.474;2023-08-08T01:48:30;13.13;;;3.37;;
13897;SDS011;7019;50.766;4.474;2023-08-08T01:50:57;8.47;;;3.60;;
13897;SDS011;7019;50.766;4.474;2023-08-08T01:53:24;10.10;;;3.80;;
13897;SDS011;7019;50.766;4.474;2023-08-08T01:55:51;9.50;;;3.97;;
13897;SDS011;7019;50.766;4.474;2023-08-08T01:58:18;9.47;;;3.67;;
13897;SDS011;7019;50.766;4.474;2023-08-08T02:00:47;11.57;;;3.87;;
13897;SDS011;7019;50.766;4.474;2023-08-08T02:03:14;10.97;;;3.73;;
13897;SDS011;7019;50.766;4.474;2023-08-08T02:05:41;13.47;;;3.50;;
13897;SDS011;7019;50.766;4.474;2023-08-08T02:08:08;8.27;;;3.67;;
13897;SDS011;7019;50.766;4.474;2023-08-08T02:10:35;9.77;;;3.83;;
13897;SDS011;7019;50.766;4.474;2023-08-08T02:13:02;8.67;;;3.77;;
13897;SDS011;7019;50.766;4.474;2023-08-08T02:15:29;7.27;;;3.30;;
13897;SDS011;7019;50.766;4.474;2023-08-08T02:17:59;6.50;;;3.10;;
13897;SDS011;7019;50.766;4.474;2023-08-08T02:20:26;10.03;;;2.93;;
13897;SDS011;7019;50.766;4.474;2023-08-08T02:22:53;8.07;;;3.97;;
13897;SDS011;7019;50.766;4.474;2023-08-08T02:25:20;6.80;;;3.40;;
13897;SDS011;7019;50.766;4.474;2023-08-08T02:27:47;9.17;;;3.40;;
13897;SDS011;7019;50.766;4.474;2023-08-08T02:30:14;9.70;;;3.63;;
13897;SDS011;7019;50.766;4.474;2023-08-08T02:32:41;6.97;;;3.60;;
13897;SDS011;7019;50.766;4.474;2023-08-08T02:35:10;10.77;;;3.30;;
13897;SDS011;7019;50.766;4.474;2023-08-08T02:37:38;13.97;;;3.67;;
13897;SDS011;7019;50.766;4.474;2023-08-08T02:40:06;9.83;;;3.60;;
13897;SDS011;7019;50.766;4.474;2023-08-08T02:42:34;15.20;;;4.60;;
13897;SDS011;7019;50.766;4.474;2023-08-08T02:45:02;9.90;;;3.30;;
13897;SDS011;7019;50.766;4.474;2023-08-08T02:47:29;12.87;;;4.27;;
13897;SDS011;7019;50.766;4.474;2023-08-08T02:49:56;10.80;;;3.90;;
13897;SDS011;7019;50.766;4.474;2023-08-08T02:52:25;8.70;;;3.37;;
13897;SDS011;7019;50.766;4.474;2023-08-08T02:54:52;8.53;;;3.87;;
13897;SDS011;7019;50.766;4.474;2023-08-08T02:57:19;9.60;;;4.43;;
13897;SDS011;7019;50.766;4.474;2023-08-08T02:59:46;9.90;;;3.73;;
13897;SDS011;7019;50.766;4.474;2023-08-08T03:02:13;5.10;;;3.27;;
13897;SDS011;7019;50.766;4.474;2023-08-08T03:04:41;11.13;;;3.77;;
13897;SDS011;7019;50.766;4.474;2023-08-08T03:07:08;12.40;;;4.17;;
13897;SDS011;7019;50.766;4.474;2023-08-08T03:09:36;7.33;;;3.60;;
13897;SDS011;7019;50.766;4.474;2023-08-08T03:12:04;14.27;;;4.00;;
13897;SDS011;7019;50.766;4.474;2023-08-08T03:14:32;8.97;;;3.70;;
13897;SDS011;7019;50.766;4.474;2023-08-08T03:16:59;10.10;;;3.90;;
13897;SDS011;7019;50.766;4.474;2023-08-08T03:19:26;12.73;;;3.90;;
13897;SDS011;7019;50.766;4.474;2023-08-08T03:21:53;8.93;;;4.30;;
13897;SDS011;7019;50.766;4.474;2023-08-08T03:24:20;12.90;;;4.60;;
13897;SDS011;7019;50.766;4.474;2023-08-08T03:26:48;13.07;;;4.40;;
13897;SDS011;7019;50.766;4.474;2023-08-08T03:29:15;8.97;;;5.10;;
13897;SDS011;7019;50.766;4.474;2023-08-08T03:31:42;13.30;;;4.23;;
13897;SDS011;7019;50.766;4.474;2023-08-08T03:34:09;9.97;;;4.50;;
13897;SDS011;7019;50.766;4.474;2023-08-08T03:36:36;14.80;;;4.00;;
13897;SDS011;7019;50.766;4.474;2023-08-08T03:39:03;10.23;;;4.13;;
13897;SDS011;7019;50.766;4.474;2023-08-08T03:41:33;11.50;;;5.00;;
13897;SDS011;7019;50.766;4.474;2023-08-08T03:44:01;12.63;;;4.97;;
13897;SDS011;7019;50.766;4.474;2023-08-08T03:46:28;14.60;;;4.60;;
13897;SDS011;7019;50.766;4.474;2023-08-08T03:48:56;13.93;;;5.57;;
13897;SDS011;7019;50.766;4.474;2023-08-08T03:51:23;13.97;;;5.67;;
13897;SDS011;7019;50.766;4.474;2023-08-08T03:53:50;17.17;;;5.63;;
13897;SDS011;7019;50.766;4.474;2023-08-08T03:56:17;9.87;;;5.20;;
13897;SDS011;7019;50.766;4.474;2023-08-08T03:58:44;16.70;;;5.90;;
13897;SDS011;7019;50.766;4.474;2023-08-08T04:01:12;10.30;;;5.13;;
13897;SDS011;7019;50.766;4.474;2023-08-08T04:03:39;19.37;;;6.07;;
13897;SDS011;7019;50.766;4.474;2023-08-08T04:06:06;15.67;;;5.17;;
13897;SDS011;7019;50.766;4.474;2023-08-08T04:08:33;14.13;;;5.90;;
13897;SDS011;7019;50.766;4.474;2023-08-08T04:11:00;11.07;;;5.23;;
13897;SDS011;7019;50.766;4.474;2023-08-08T04:13:27;16.37;;;5.37;;
13897;SDS011;7019;50.766;4.474;2023-08-08T04:15:54;13.60;;;6.00;;
13897;SDS011;7019;50.766;4.474;2023-08-08T04:18:23;16.93;;;5.63;;
13897;SDS011;7019;50.766;4.474;2023-08-08T04:20:50;11.90;;;4.53;;
13897;SDS011;7019;50.766;4.474;2023-08-08T04:23:17;11.30;;;5.03;;
13897;SDS011;7019;50.766;4.474;2023-08-08T04:25:44;12.63;;;4.73;;
13897;SDS011;7019;50.766;4.474;2023-08-08T04:28:11;11.10;;;5.10;;
13897;SDS011;7019;50.766;4.474;2023-08-08T04:30:38;8.83;;;4.00;;
13897;SDS011;7019;50.766;4.474;2023-08-08T04:33:05;7.83;;;4.20;;
13897;SDS011;7019;50.766;4.474;2023-08-08T04:35:34;12.43;;;5.20;;
13897;SDS011;7019;50.766;4.474;2023-08-08T04:38:01;10.80;;;4.27;;
13897;SDS011;7019;50.766;4.474;2023-08-08T04:40:28;13.33;;;4.77;;
13897;SDS011;7019;50.766;4.474;2023-08-08T04:42:55;13.30;;;4.57;;
13897;SDS011;7019;50.766;4.474;2023-08-08T04:45:22;16.90;;;4.90;;
13897;SDS011;7019;50.766;4.474;2023-08-08T04:47:52;19.27;;;5.50;;
13897;SDS011;7019;50.766;4.474;2023-08-08T04:50:19;15.13;;;4.40;;
13897;SDS011;7019;50.766;4.474;2023-08-08T04:52:47;17.00;;;5.13;;
13897;SDS011;7019;50.766;4.474;2023-08-08T04:55:14;10.87;;;5.17;;
13897;SDS011;7019;50.766;4.474;2023-08-08T04:57:41;11.57;;;4.37;;
13897;SDS011;7019;50.766;4.474;2023-08-08T05:00:09;9.10;;;4.63;;
13897;SDS011;7019;50.766;4.474;2023-08-08T05:02:37;16.13;;;4.93;;
13897;SDS011;7019;50.766;4.474;2023-08-08T05:05:06;13.23;;;5.17;;
13897;SDS011;7019;50.766;4.474;2023-08-08T05:07:34;15.83;;;5.90;;
13897;SDS011;7019;50.766;4.474;2023-08-08T05:10:04;13.93;;;4.57;;
13897;SDS011;7019;50.766;4.474;2023-08-08T05:12:32;18.47;;;5.30;;
13897;SDS011;7019;50.766;4.474;2023-08-08T05:14:59;17.17;;;4.60;;
13897;SDS011;7019;50.766;4.474;2023-08-08T05:17:26;14.90;;;5.10;;
13897;SDS011;7019;50.766;4.474;2023-08-08T05:19:53;12.60;;;4.40;;
13897;SDS011;7019;50.766;4.474;2023-08-08T05:22:20;8.43;;;4.50;;
13897;SDS011;7019;50.766;4.474;2023-08-08T05:24:47;13.13;;;4.17;;
13897;SDS011;7019;50.766;4.474;2023-08-08T05:27:15;11.27;;;5.07;;
13897;SDS011;7019;50.766;4.474;2023-08-08T05:29:42;14.50;;;4.53;;
13897;SDS011;7019;50.766;4.474;2023-08-08T05:32:09;12.73;;;4.00;;
13897;SDS011;7019;50.766;4.474;2023-08-08T05:34:36;12.07;;;4.50;;
13897;SDS011;7019;50.766;4.474;2023-08-08T05:37:04;12.50;;;5.10;;
13897;SDS011;7019;50.766;4.474;2023-08-08T05:39:31;15.67;;;4.30;;
13897;SDS011;7019;50.766;4.474;2023-08-08T05:41:58;8.70;;;4.53;;
13897;SDS011;7019;50.766;4.474;2023-08-08T05:44:27;14.27;;;4.43;;
13897;SDS011;7019;50.766;4.474;2023-08-08T05:46:54;9.50;;;4.30;;
13897;SDS011;7019;50.766;4.474;2023-08-08T05:49:21;11.23;;;4.10;;
13897;SDS011;7019;50.766;4.474;2023-08-08T05:51:48;10.30;;;3.70;;
13897;SDS011;7019;50.766;4.474;2023-08-08T05:54:15;9.07;;;3.90;;
13897;SDS011;7019;50.766;4.474;2023-08-08T05:56:42;12.53;;;4.63;;
13897;SDS011;7019;50.766;4.474;2023-08-08T05:59:09;8.50;;;3.17;;
13897;SDS011;7019;50.766;4.474;2023-08-08T06:01:38;10.60;;;3.47;;
13897;SDS011;7019;50.766;4.474;2023-08-08T06:04:06;14.87;;;3.80;;
13897;SDS011;7019;50.766;4.474;2023-08-08T06:06:33;8.27;;;3.23;;
13897;SDS011;7019;50.766;4.474;2023-08-08T06:09:00;6.73;;;3.43;;
13897;SDS011;7019;50.766;4.474;2023-08-08T06:11:28;10.77;;;3.83;;
13897;SDS011;7019;50.766;4.474;2023-08-08T06:13:55;9.37;;;2.63;;
13897;SDS011;7019;50.766;4.474;2023-08-08T06:16:22;9.07;;;2.07;;
13897;SDS011;7019;50.766;4.474;2023-08-08T06:18:51;10.03;;;2.43;;
13897;SDS011;7019;50.766;4.474;2023-08-08T06:21:18;7.60;;;1.90;;
13897;SDS011;7019;50.766;4.474;2023-08-08T06:23:45;9.27;;;2.03;;
13897;SDS011;7019;50.766;4.474;2023-08-08T06:26:14;11.27;;;3.03;;
13897;SDS011;7019;50.766;4.474;2023-08-08T06:28:41;6.10;;;2.10;;
13897;SDS011;7019;50.766;4.474;2023-08-08T06:31:08;4.37;;;1.70;;
13897;SDS011;7019;50.766;4.474;2023-08-08T06:33:35;8.60;;;2.10;;
13897;SDS011;7019;50.766;4.474;2023-08-08T06:36:04;6.17;;;1.90;;
13897;SDS011;7019;50.766;4.474;2023-08-08T06:38:31;5.80;;;2.63;;
13897;SDS011;7019;50.766;4.474;2023-08-08T06:40:59;6.53;;;1.90;;
13897;SDS011;7019;50.766;4.474;2023-08-08T06:43:26;8.93;;;2.67;;
13897;SDS011;7019;50.766;4.474;2023-08-08T06:45:53;10.77;;;2.07;;
13897;SDS011;7019;50.766;4.474;2023-08-08T06:48:22;7.43;;;2.10;;
13897;SDS011;7019;50.766;4.474;2023-08-08T06:50:49;8.10;;;2.00;;
13897;SDS011;7019;50.766;4.474;2023-08-08T06:53:17;7.60;;;2.30;;
13897;SDS011;7019;50.766;4.474;2023-08-08T06:55:44;7.70;;;2.07;;
13897;SDS011;7019;50.766;4.474;2023-08-08T06:58:11;3.80;;;1.60;;
13897;SDS011;7019;50.766;4.474;2023-08-08T07:00:38;7.43;;;2.57;;
13897;SDS011;7019;50.766;4.474;2023-08-08T07:03:06;9.23;;;2.30;;
13897;SDS011;7019;50.766;4.474;2023-08-08T07:05:33;10.37;;;2.00;;
13897;SDS011;7019;50.766;4.474;2023-08-08T07:08:00;9.90;;;2.50;;
13897;SDS011;7019;50.766;4.474;2023-08-08T07:10:28;10.07;;;2.20;;
13897;SDS011;7019;50.766;4.474;2023-08-08T07:12:55;5.50;;;1.77;;
13897;SDS011;7019;50.766;4.474;2023-08-08T07:15:22;9.07;;;2.30;;
13897;SDS011;7019;50.766;4.474;2023-08-08T07:17:50;12.43;;;2.37;;
13897;SDS011;7019;50.766;4.474;2023-08-08T07:20:18;12.50;;;2.73;;
13897;SDS011;7019;50.766;4.474;2023-08-08T07:22:45;7.83;;;2.10;;
13897;SDS011;7019;50.766;4.474;2023-08-08T07:25:12;6.17;;;2.07;;
13897;SDS011;7019;50.766;4.474;2023-08-08T07:27:41;11.53;;;2.63;;
13897;SDS011;7019;50.766;4.474;2023-08-08T07:30:08;9.23;;;2.30;;
13897;SDS011;7019;50.766;4.474;2023-08-08T07:32:37;7.53;;;2.73;;
13897;SDS011;7019;50.766;4.474;2023-08-08T07:35:04;6.77;;;1.80;;
13897;SDS011;7019;50.766;4.474;2023-08-08T07:37:33;10.40;;;2.50;;
13897;SDS011;7019;50.766;4.474;2023-08-08T07:40:00;5.60;;;1.67;;
13897;SDS011;7019;50.766;4.474;2023-08-08T07:42:29;6.07;;;1.83;;
13897;SDS011;7019;50.766;4.474;2023-08-08T07:44:57;3.63;;;1.53;;
13897;SDS011;7019;50.766;4.474;2023-08-08T07:47:24;3.63;;;1.50;;
13897;SDS011;7019;50.766;4.474;2023-08-08T07:49:52;7.53;;;2.13;;
13897;SDS011;7019;50.766;4.474;2023-08-08T07:52:19;3.70;;;1.80;;
13897;SDS011;7019;50.766;4.474;2023-08-08T07:54:46;7.07;;;1.83;;
13897;SDS011;7019;50.766;4.474;2023-08-08T07:57:13;6.57;;;1.77;;
13897;SDS011;7019;50.766;4.474;2023-08-08T07:59:40;4.30;;;1.70;;
13897;SDS011;7019;50.766;4.474;2023-08-08T08:02:08;6.47;;;1.93;;
13897;SDS011;7019;50.766;4.474;2023-08-08T08:04:35;9.50;;;2.53;;
13897;SDS011;7019;50.766;4.474;2023-08-08T08:07:03;8.30;;;2.17;;
13897;SDS011;7019;50.766;4.474;2023-08-08T08:09:30;8.20;;;2.30;;
13897;SDS011;7019;50.766;4.474;2023-08-08T08:11:57;7.63;;;1.83;;
13897;SDS011;7019;50.766;4.474;2023-08-08T08:14:24;6.80;;;2.07;;
13897;SDS011;7019;50.766;4.474;2023-08-08T08:16:52;5.13;;;1.83;;
13897;SDS011;7019;50.766;4.474;2023-08-08T08:19:20;4.33;;;1.80;;
13897;SDS011;7019;50.766;4.474;2023-08-08T08:21:47;4.87;;;1.70;;
13897;SDS011;7019;50.766;4.474;2023-08-08T08:24:14;5.13;;;1.50;;
13897;SDS011;7019;50.766;4.474;2023-08-08T08:26:41;4.93;;;1.60;;
13897;SDS011;7019;50.766;4.474;2023-08-08T08:29:08;5.60;;;1.90;;
13897;SDS011;7019;50.766;4.474;2023-08-08T08:31:35;4.67;;;1.60;;
13897;SDS011;7019;50.766;4.474;2023-08-08T08:34:03;8.53;;;1.90;;
13897;SDS011;7019;50.766;4.474;2023-08-08T08:36:32;3.47;;;1.40;;
13897;SDS011;7019;50.766;4.474;2023-08-08T08:38:59;5.10;;;1.77;;
13897;SDS011;7019;50.766;4.474;2023-08-08T08:41:27;6.20;;;1.40;;
13897;SDS011;7019;50.766;4.474;2023-08-08T08:43:54;7.40;;;1.60;;
13897;SDS011;7019;50.766;4.474;2023-08-08T08:46:21;4.83;;;1.93;;
13897;SDS011;7019;50.766;4.474;2023-08-08T08:48:50;4.57;;;1.93;;
13897;SDS011;7019;50.766;4.474;2023-08-08T08:51:21;4.43;;;1.60;;
13897;SDS011;7019;50.766;4.474;2023-08-08T08:53:49;7.00;;;1.90;;
13897;SDS011;7019;50.766;4.474;2023-08-08T08:56:16;3.47;;;1.37;;
13897;SDS011;7019;50.766;4.474;2023-08-08T08:58:44;5.97;;;1.73;;
13897;SDS011;7019;50.766;4.474;2023-08-08T09:01:11;3.47;;;1.43;;
13897;SDS011;7019;50.766;4.474;2023-08-08T09:03:39;2.33;;;1.30;;
13897;SDS011;7019;50.766;4.474;2023-08-08T09:06:09;5.23;;;1.47;;
13897;SDS011;7019;50.766;4.474;2023-08-08T09:08:37;4.57;;;1.50;;
13897;SDS011;7019;50.766;4.474;2023-08-08T09:11:05;3.03;;;1.70;;
13897;SDS011;7019;50.766;4.474;2023-08-08T09:13:41;3.30;;;1.37;;
13897;SDS011;7019;50.766;4.474;2023-08-08T09:16:08;6.50;;;1.50;;
13897;SDS011;7019;50.766;4.474;2023-08-08T09:18:37;5.50;;;1.70;;
13897;SDS011;7019;50.766;4.474;2023-08-08T09:21:04;5.13;;;1.80;;
13897;SDS011;7019;50.766;4.474;2023-08-08T09:23:31;5.70;;;1.97;;
13897;SDS011;7019;50.766;4.474;2023-08-08T09:25:58;7.07;;;1.70;;
13897;SDS011;7019;50.766;4.474;2023-08-08T09:28:27;4.50;;;1.90;;
13897;SDS011;7019;50.766;4.474;2023-08-08T09:30:54;6.00;;;2.03;;
13897;SDS011;7019;50.766;4.474;2023-08-08T09:33:21;5.07;;;2.13;;
13897;SDS011;7019;50.766;4.474;2023-08-08T09:35:48;4.37;;;1.77;;
13897;SDS011;7019;50.766;4.474;2023-08-08T09:38:15;4.47;;;1.70;;
13897;SDS011;7019;50.766;4.474;2023-08-08T09:40:42;4.67;;;1.53;;
13897;SDS011;7019;50.766;4.474;2023-08-08T09:43:11;5.25;;;1.52;;
13897;SDS011;7019;50.766;4.474;2023-08-08T09:45:39;6.30;;;1.90;;
13897;SDS011;7019;50.766;4.474;2023-08-08T09:48:08;5.78;;;1.50;;
13897;SDS011;7019;50.766;4.474;2023-08-08T09:50:35;7.90;;;2.00;;
13897;SDS011;7019;50.766;4.474;2023-08-08T09:53:02;5.70;;;1.67;;
13897;SDS011;7019;50.766;4.474;2023-08-08T09:55:30;3.00;;;1.70;;
13897;SDS011;7019;50.766;4.474;2023-08-08T09:57:58;7.63;;;1.83;;
13897;SDS011;7019;50.766;4.474;2023-08-08T10:00:26;4.13;;;1.90;;
13897;SDS011;7019;50.766;4.474;2023-08-08T10:02:57;5.50;;;1.77;;
13897;SDS011;7019;50.766;4.474;2023-08-08T10:05:25;4.53;;;1.55;;
13897;SDS011;7019;50.766;4.474;2023-08-08T10:07:53;2.63;;;1.50;;
13897;SDS011;7019;50.766;4.474;2023-08-08T10:10:21;4.97;;;1.40;;
13897;SDS011;7019;50.766;4.474;2023-08-08T10:12:49;5.97;;;2.10;;
13897;SDS011;7019;50.766;4.474;2023-08-08T10:15:16;4.03;;;1.60;;
13897;SDS011;7019;50.766;4.474;2023-08-08T10:17:43;5.07;;;1.53;;
13897;SDS011;7019;50.766;4.474;2023-08-08T10:20:13;7.47;;;1.93;;
13897;SDS011;7019;50.766;4.474;2023-08-08T10:22:43;4.00;;;1.70;;
13897;SDS011;7019;50.766;4.474;2023-08-08T10:25:17;4.70;;;1.50;;
13897;SDS011;7019;50.766;4.474;2023-08-08T10:27:45;4.17;;;1.50;;
13897;SDS011;7019;50.766;4.474;2023-08-08T10:30:12;6.10;;;1.77;;
13897;SDS011;7019;50.766;4.474;2023-08-08T10:32:41;3.53;;;1.40;;
13897;SDS011;7019;50.766;4.474;2023-08-08T10:35:09;6.60;;;1.60;;
13897;SDS011;7019;50.766;4.474;2023-08-08T10:37:39;7.03;;;1.50;;
13897;SDS011;7019;50.766;4.474;2023-08-08T10:40:07;5.10;;;1.30;;
13897;SDS011;7019;50.766;4.474;2023-08-08T10:42:42;4.27;;;1.47;;
13897;SDS011;7019;50.766;4.474;2023-08-08T10:45:12;4.57;;;1.53;;
13897;SDS011;7019;50.766;4.474;2023-08-08T10:47:41;3.97;;;1.10;;
13897;SDS011;7019;50.766;4.474;2023-08-08T10:50:10;2.27;;;1.27;;
13897;SDS011;7019;50.766;4.474;2023-08-08T10:52:50;3.43;;;1.20;;
13897;SDS011;7019;50.766;4.474;2023-08-08T10:55:19;4.03;;;1.27;;
13897;SDS011;7019;50.766;4.474;2023-08-08T10:57:54;5.23;;;1.60;;
13897;SDS011;7019;50.766;4.474;2023-08-08T11:00:23;4.70;;;1.80;;
13897;SDS011;7019;50.766;4.474;2023-08-08T11:02:52;4.00;;;1.17;;
13897;SDS011;7019;50.766;4.474;2023-08-08T11:05:21;5.70;;;1.20;;
13897;SDS011;7019;50.766;4.474;2023-08-08T11:07:49;3.27;;;1.20;;
13897;SDS011;7019;50.766;4.474;2023-08-08T11:10:17;6.07;;;1.10;;
13897;SDS011;7019;50.766;4.474;2023-08-08T11:12:53;6.07;;;1.13;;
13897;SDS011;7019;50.766;4.474;2023-08-08T11:15:21;3.13;;;0.77;;
13897;SDS011;7019;50.766;4.474;2023-08-08T11:17:48;2.47;;;1.00;;
13897;SDS011;7019;50.766;4.474;2023-08-08T11:20:17;4.00;;;1.03;;
13897;SDS011;7019;50.766;4.474;2023-08-08T11:22:44;4.57;;;1.27;;
13897;SDS011;7019;50.766;4.474;2023-08-08T11:25:18;3.83;;;1.10;;
13897;SDS011;7019;50.766;4.474;2023-08-08T11:27:49;2.43;;;0.80;;
13897;SDS011;7019;50.766;4.474;2023-08-08T11:30:17;2.50;;;1.00;;
13897;SDS011;7019;50.766;4.474;2023-08-08T11:32:45;3.00;;;1.10;;
13897;SDS011;7019;50.766;4.474;2023-08-08T11:35:13;2.73;;;1.00;;
13897;SDS011;7019;50.766;4.474;2023-08-08T11:37:43;3.37;;;0.97;;
13897;SDS011;7019;50.766;4.474;2023-08-08T11:40:11;1.67;;;1.10;;
13897;SDS011;7019;50.766;4.474;2023-08-08T11:42:40;1.47;;;0.80;;
13897;SDS011;7019;50.766;4.474;2023-08-08T11:45:08;4.97;;;1.20;;
13897;SDS011;7019;50.766;4.474;2023-08-08T11:47:37;1.73;;;1.00;;
13897;SDS011;7019;50.766;4.474;2023-08-08T11:50:05;2.70;;;0.80;;
13897;SDS011;7019;50.766;4.474;2023-08-08T11:52:34;3.03;;;1.30;;
13897;SDS011;7019;50.766;4.474;2023-08-08T11:55:06;5.20;;;0.90;;
13897;SDS011;7019;50.766;4.474;2023-08-08T11:57:35;2.77;;;1.50;;
13897;SDS011;7019;50.766;4.474;2023-08-08T12:00:04;2.20;;;0.90;;
13897;SDS011;7019;50.766;4.474;2023-08-08T12:02:33;1.77;;;1.07;;
13897;SDS011;7019;50.766;4.474;2023-08-08T12:05:03;2.30;;;1.10;;
13897;SDS011;7019;50.766;4.474;2023-08-08T12:07:31;1.33;;;0.73;;
13897;SDS011;7019;50.766;4.474;2023-08-08T12:09:59;4.60;;;1.17;;
13897;SDS011;7019;50.766;4.474;2023-08-08T12:12:26;2.23;;;1.03;;
13897;SDS011;7019;50.766;4.474;2023-08-08T12:14:54;3.43;;;0.90;;
13897;SDS011;7019;50.766;4.474;2023-08-08T12:17:22;3.57;;;0.93;;
13897;SDS011;7019;50.766;4.474;2023-08-08T12:19:49;4.23;;;1.10;;
13897;SDS011;7019;50.766;4.474;2023-08-08T12:22:16;3.40;;;0.97;;
13897;SDS011;7019;50.766;4.474;2023-08-08T12:24:43;4.67;;;1.13;;
13897;SDS011;7019;50.766;4.474;2023-08-08T12:27:10;5.37;;;1.30;;
13897;SDS011;7019;50.766;4.474;2023-08-08T12:29:38;6.03;;;1.57;;
13897;SDS011;7019;50.766;4.474;2023-08-08T12:32:05;3.67;;;1.10;;
13897;SDS011;7019;50.766;4.474;2023-08-08T12:34:34;1.13;;;0.47;;
13897;SDS011;7019;50.766;4.474;2023-08-08T12:37:01;4.10;;;0.80;;
13897;SDS011;7019;50.766;4.474;2023-08-08T12:39:29;3.00;;;0.80;;
13897;SDS011;7019;50.766;4.474;2023-08-08T12:41:56;1.47;;;0.70;;
13897;SDS011;7019;50.766;4.474;2023-08-08T12:44:23;3.50;;;1.10;;
13897;SDS011;7019;50.766;4.474;2023-08-08T12:46:50;2.03;;;0.90;;
13897;SDS011;7019;50.766;4.474;2023-08-08T12:49:17;2.63;;;0.93;;
13897;SDS011;7019;50.766;4.474;2023-08-08T12:51:46;2.97;;;1.10;;
13897;SDS011;7019;50.766;4.474;2023-08-08T12:54:13;2.67;;;0.90;;
13897;SDS011;7019;50.766;4.474;2023-08-08T12:56:40;1.63;;;1.10;;
13897;SDS011;7019;50.766;4.474;2023-08-08T12:59:07;2.77;;;0.80;;
13897;SDS011;7019;50.766;4.474;2023-08-08T13:01:35;5.47;;;1.20;;
13897;SDS011;7019;50.766;4.474;2023-08-08T13:04:02;1.80;;;0.90;;
13897;SDS011;7019;50.766;4.474;2023-08-08T13:06:30;2.10;;;0.80;;
13897;SDS011;7019;50.766;4.474;2023-08-08T13:08:59;2.00;;;1.30;;
13897;SDS011;7019;50.766;4.474;2023-08-08T13:11:26;2.53;;;0.90;;
13897;SDS011;7019;50.766;4.474;2023-08-08T13:13:54;1.70;;;0.90;;
13897;SDS011;7019;50.766;4.474;2023-08-08T13:16:21;5.53;;;0.90;;
13897;SDS011;7019;50.766;4.474;2023-08-08T13:18:48;2.33;;;1.10;;
13897;SDS011;7019;50.766;4.474;2023-08-08T13:21:16;2.53;;;1.00;;
13897;SDS011;7019;50.766;4.474;2023-08-08T13:23:43;5.00;;;1.07;;
13897;SDS011;7019;50.766;4.474;2023-08-08T13:26:12;2.40;;;0.83;;
13897;SDS011;7019;50.766;4.474;2023-08-08T13:28:39;2.80;;;0.63;;
13897;SDS011;7019;50.766;4.474;2023-08-08T13:31:08;2.60;;;0.80;;
13897;SDS011;7019;50.766;4.474;2023-08-08T13:33:35;4.23;;;0.80;;
13897;SDS011;7019;50.766;4.474;2023-08-08T13:36:02;1.93;;;1.00;;
13897;SDS011;7019;50.766;4.474;2023-08-08T13:38:29;1.40;;;0.70;;
13897;SDS011;7019;50.766;4.474;2023-08-08T13:40:56;2.63;;;0.70;;
13897;SDS011;7019;50.766;4.474;2023-08-08T13:43:26;0.83;;;0.60;;
13897;SDS011;7019;50.766;4.474;2023-08-08T13:45:55;1.83;;;0.73;;
13897;SDS011;7019;50.766;4.474;2023-08-08T13:48:22;1.37;;;0.70;;
13897;SDS011;7019;50.766;4.474;2023-08-08T13:50:49;2.23;;;0.80;;
13897;SDS011;7019;50.766;4.474;2023-08-08T13:53:17;1.37;;;0.80;;
13897;SDS011;7019;50.766;4.474;2023-08-08T13:55:44;3.57;;;0.93;;
13897;SDS011;7019;50.766;4.474;2023-08-08T13:58:11;1.40;;;0.57;;
13897;SDS011;7019;50.766;4.474;2023-08-08T14:00:39;1.40;;;0.80;;
13897;SDS011;7019;50.766;4.474;2023-08-08T14:03:07;1.93;;;0.90;;
13897;SDS011;7019;50.766;4.474;2023-08-08T14:05:34;1.80;;;0.80;;
13897;SDS011;7019;50.766;4.474;2023-08-08T14:08:02;3.47;;;0.87;;
13897;SDS011;7019;50.766;4.474;2023-08-08T14:10:30;2.63;;;1.03;;
13897;SDS011;7019;50.766;4.474;2023-08-08T14:12:57;0.83;;;0.57;;
13897;SDS011;7019;50.766;4.474;2023-08-08T14:15:24;1.00;;;0.50;;
13897;SDS011;7019;50.766;4.474;2023-08-08T14:17:52;1.83;;;0.70;;
13897;SDS011;7019;50.766;4.474;2023-08-08T14:20:20;2.73;;;1.10;;
13897;SDS011;7019;50.766;4.474;2023-08-08T14:22:47;1.33;;;0.60;;
13897;SDS011;7019;50.766;4.474;2023-08-08T14:25:14;1.70;;;1.17;;
13897;SDS011;7019;50.766;4.474;2023-08-08T14:27:41;1.47;;;0.70;;
13897;SDS011;7019;50.766;4.474;2023-08-08T14:30:09;1.67;;;0.80;;
13897;SDS011;7019;50.766;4.474;2023-08-08T14:32:36;1.07;;;0.77;;
13897;SDS011;7019;50.766;4.474;2023-08-08T14:35:05;2.00;;;0.90;;
13897;SDS011;7019;50.766;4.474;2023-08-08T14:37:33;1.17;;;0.70;;
13897;SDS011;7019;50.766;4.474;2023-08-08T14:40:01;4.70;;;1.20;;
13897;SDS011;7019;50.766;4.474;2023-08-08T14:42:29;1.57;;;0.70;;
13897;SDS011;7019;50.766;4.474;2023-08-08T14:44:56;1.30;;;0.80;;
13897;SDS011;7019;50.766;4.474;2023-08-08T14:47:23;4.07;;;0.93;;
13897;SDS011;7019;50.766;4.474;2023-08-08T14:49:50;3.67;;;1.13;;
13897;SDS011;7019;50.766;4.474;2023-08-08T14:52:19;3.30;;;0.80;;
13897;SDS011;7019;50.766;4.474;2023-08-08T14:54:46;1.00;;;0.70;;
13897;SDS011;7019;50.766;4.474;2023-08-08T14:57:13;3.53;;;0.70;;
13897;SDS011;7019;50.766;4.474;2023-08-08T14:59:40;2.30;;;1.03;;
13897;SDS011;7019;50.766;4.474;2023-08-08T15:02:07;3.70;;;0.90;;